Time;durP1;ratioP1;P1;durP2;ratioP2;P2;SDS_P1;SDS_P2;PMS_P1;PMS_P2;Temp;Humidity;BMP_temperature;BMP_pressure;BME280_temperature;BME280_humidity;BME280_pressure;Samples;Min_cycle;Max_cycle;Signal;HPM_P1;HPM_P2
2022/07/22 00:00:19;;;;;;;4.88;3.17;;;24.50;61.80;;;;;;20520227;28;20118;-75
2022/07/22 00:10:19;;;;;;;4.95;3.15;;;24.50;61.90;;;;;;20526637;28;20042;-75
2022/07/22 00:20:20;;;;;;;3.83;2.60;;;24.40;61.90;;;;;;20527575;28;20110;-76
2022/07/22 00:30:21;;;;;;;3.80;2.72;;;24.40;62.10;;;;;;20541825;28;20039;-77
2022/07/22 00:40:22;;;;;;;2.83;2.22;;;24.40;62.30;;;;;;20526059;28;20059;-76
2022/07/22 00:50:23;;;;;;;3.30;2.73;;;24.40;62.20;;;;;;20523868;28;20524;-77
2022/07/22 01:00:24;;;;;;;2.80;2.50;;;24.30;62.40;;;;;;20885512;23;20397;-74
2022/07/22 01:10:25;;;;;;;3.05;2.38;;;24.30;62.40;;;;;;20584587;28;20042;-74
2022/07/22 01:20:27;;;;;;;2.78;1.77;;;24.30;62.60;;;;;;20594426;28;20105;-75
2022/07/22 01:30:27;;;;;;;2.90;2.58;;;24.30;62.70;;;;;;20570290;28;20432;-74
2022/07/22 01:40:28;;;;;;;3.72;2.20;;;24.20;62.90;;;;;;20560964;28;20031;-74
2022/07/22 01:50:29;;;;;;;2.70;2.35;;;24.10;62.90;;;;;;20601162;28;20121;-75
2022/07/22 02:00:31;;;;;;;2.58;2.10;;;24.10;62.90;;;;;;20583281;28;20038;-74
2022/07/22 02:10:34;;;;;;;3.22;2.20;;;24.20;63.10;;;;;;20598957;28;20069;-75
2022/07/22 02:20:36;;;;;;;2.70;1.92;;;24.10;63.10;;;;;;20599498;28;20053;-75
2022/07/22 02:30:37;;;;;;;4.50;1.93;;;24.00;63.30;;;;;;20598004;28;20039;-75
2022/07/22 02:40:37;;;;;;;2.13;1.92;;;23.90;63.50;;;;;;20586537;28;20512;-75
2022/07/22 02:50:38;;;;;;;3.50;1.90;;;23.90;63.70;;;;;;20629107;28;20074;-74
2022/07/22 03:00:40;;;;;;;3.75;2.20;;;23.90;63.70;;;;;;20601894;28;20042;-75
2022/07/22 03:10:41;;;;;;;2.70;2.08;;;23.90;63.80;;;;;;20611123;28;20050;-75
2022/07/22 03:20:42;;;;;;;2.53;1.52;;;23.80;63.90;;;;;;20579223;28;20042;-75
2022/07/22 03:30:43;;;;;;;2.92;2.20;;;23.80;64.00;;;;;;20565168;28;20027;-75
2022/07/22 03:40:43;;;;;;;2.38;2.00;;;23.90;64.40;;;;;;20597237;28;20365;-75
2022/07/22 03:50:44;;;;;;;2.28;1.83;;;23.90;64.80;;;;;;20582149;28;20127;-75
2022/07/22 04:00:45;;;;;;;2.80;1.83;;;23.80;65.10;;;;;;20600681;28;20047;-73
2022/07/22 04:10:46;;;;;;;3.05;1.92;;;23.70;65.60;;;;;;20623500;28;20189;-74
2022/07/22 04:20:47;;;;;;;2.15;1.42;;;23.70;66.00;;;;;;20583301;28;20121;-75
2022/07/22 04:30:50;;;;;;;1.60;1.40;;;23.80;65.80;;;;;;20606693;28;20248;-75
2022/07/22 04:40:51;;;;;;;2.20;1.35;;;23.80;65.40;;;;;;20562981;28;20035;-75
2022/07/22 04:50:52;;;;;;;2.42;1.42;;;23.90;64.90;;;;;;20557404;28;20480;-75
2022/07/22 05:00:53;;;;;;;1.58;1.13;;;23.90;64.60;;;;;;20594240;28;20625;-77
2022/07/22 05:10:53;;;;;;;2.05;1.20;;;23.90;64.30;;;;;;20570609;28;20045;-76
2022/07/22 05:20:54;;;;;;;1.55;1.00;;;23.90;64.00;;;;;;20591628;28;20437;-77
2022/07/22 05:30:55;;;;;;;1.77;1.00;;;23.90;64.00;;;;;;20595879;28;20080;-78
2022/07/22 05:40:59;;;;;;;1.50;1.40;;;23.90;63.80;;;;;;20550476;28;20041;-78
2022/07/22 05:51:00;;;;;;;1.47;0.73;;;23.80;63.60;;;;;;20571237;28;20042;-77
2022/07/22 06:01:01;;;;;;;2.05;1.10;;;23.80;63.40;;;;;;20549768;28;20340;-75
2022/07/22 06:11:01;;;;;;;1.38;1.10;;;23.70;63.10;;;;;;20579209;28;20184;-76
2022/07/22 06:21:04;;;;;;;1.30;0.73;;;23.80;63.00;;;;;;20609836;28;20045;-75
2022/07/22 06:31:05;;;;;;;1.55;0.90;;;23.70;62.60;;;;;;20618587;28;20471;-73
2022/07/22 06:41:07;;;;;;;1.30;0.73;;;23.70;62.40;;;;;;20564153;28;20043;-73
2022/07/22 06:51:28;;;;;;;1.25;0.73;;;23.70;62.20;;;;;;20622182;28;20043;-73
2022/07/22 07:01:30;;;;;;;2.15;1.30;;;23.70;62.20;;;;;;20595710;28;20080;-73
2022/07/22 07:11:34;;;;;;;1.27;0.90;;;23.70;62.20;;;;;;20612150;28;20477;-76
2022/07/22 07:21:39;;;;;;;1.27;1.08;;;23.70;62.20;;;;;;20584404;28;20042;-72
2022/07/22 07:31:40;;;;;;;4.45;1.30;;;23.70;62.10;;;;;;20620749;28;20037;-74
2022/07/22 07:41:47;;;;;;;1.30;1.10;;;23.60;62.00;;;;;;20608294;28;20121;-78
2022/07/22 07:51:49;;;;;;;1.80;1.30;;;23.60;61.80;;;;;;20592854;28;20046;-76
2022/07/22 08:01:50;;;;;;;1.38;1.10;;;23.60;61.80;;;;;;20572194;28;20408;-74
2022/07/22 08:11:51;;;;;;;2.85;1.20;;;23.60;61.80;;;;;;20586188;28;20042;-78
2022/07/22 08:22:13;;;;;;;3.47;1.00;;;23.50;61.70;;;;;;20582035;28;20109;-80
2022/07/22 08:32:15;;;;;;;4.05;1.27;;;23.50;61.70;;;;;;20593326;28;20034;-80
2022/07/22 08:42:16;;;;;;;2.70;1.50;;;23.50;61.50;;;;;;20593541;28;20173;-80
2022/07/22 08:52:17;;;;;;;4.45;1.40;;;23.50;61.40;;;;;;20615036;28;20643;-81
2022/07/22 09:02:22;;;;;;;2.50;1.55;;;23.50;61.20;;;;;;20583718;28;20105;-80
2022/07/22 09:12:23;;;;;;;1.70;1.40;;;23.50;61.10;;;;;;20573877;28;20038;-83
2022/07/22 09:22:53;;;;;;;2.78;2.10;;;23.50;61.00;;;;;;20559343;28;20049;-76
2022/07/22 09:32:57;;;;;;;3.37;2.00;;;23.50;60.90;;;;;;20580283;28;20087;-79
2022/07/22 09:43:16;;;;;;;2.67;1.40;;;23.50;60.90;;;;;;20572710;28;20038;-77
2022/07/22 09:53:19;;;;;;;3.08;1.58;;;23.50;60.80;;;;;;20535628;28;20035;-77
2022/07/22 10:03:32;;;;;;;1.95;1.40;;;23.50;60.60;;;;;;20569180;28;20464;-76
2022/07/22 10:13:34;;;;;;;1.25;1.15;;;23.50;60.40;;;;;;20569308;28;20485;-75
2022/07/22 10:24:09;;;;;;;3.00;1.50;;;23.40;60.30;;;;;;20565337;28;20046;-76
2022/07/22 10:34:12;;;;;;;3.35;2.08;;;23.40;60.30;;;;;;20592734;28;20046;-73
2022/07/22 10:44:13;;;;;;;3.13;1.70;;;23.50;60.40;;;;;;20598385;28;20039;-74
2022/07/22 10:54:13;;;;;;;1.58;1.10;;;23.50;60.30;;;;;;20592575;28;20046;-78
2022/07/22 11:04:25;;;;;;;3.70;1.80;;;23.40;60.20;;;;;;20583521;28;20035;-76
2022/07/22 11:14:30;;;;;;;1.77;1.20;;;23.40;60.10;;;;;;20558846;28;20049;-77
2022/07/22 11:24:31;;;;;;;1.70;1.05;;;23.40;60.10;;;;;;20575464;28;20047;-76
2022/07/22 11:34:31;;;;;;;2.33;1.00;;;23.40;60.00;;;;;;20590662;28;20638;-76
2022/07/22 11:44:36;;;;;;;2.67;1.35;;;23.40;59.90;;;;;;20571544;28;20043;-75
2022/07/22 11:54:37;;;;;;;2.90;1.50;;;23.40;59.70;;;;;;20583270;28;20088;-79
2022/07/22 12:04:38;;;;;;;1.77;1.27;;;23.40;59.50;;;;;;20556354;28;20129;-73
2022/07/22 12:14:44;;;;;;;2.45;1.45;;;23.40;59.40;;;;;;20582348;28;20053;-77
2022/07/22 12:24:47;;;;;;;2.90;1.40;;;23.40;59.30;;;;;;20577421;28;20480;-78
2022/07/22 12:34:54;;;;;;;2.55;1.10;;;23.40;59.30;;;;;;20566305;28;20508;-73
2022/07/22 12:45:16;;;;;;;2.83;1.67;;;23.40;59.40;;;;;;20594816;28;20509;-71
2022/07/22 12:55:17;;;;;;;3.20;1.50;;;23.40;59.60;;;;;;20609978;28;20053;-84
2022/07/22 13:05:18;;;;;;;3.38;1.73;;;23.40;59.70;;;;;;20585061;28;20035;-76
2022/07/22 13:15:19;;;;;;;3.22;1.60;;;23.40;59.80;;;;;;20628047;28;20396;-81
2022/07/22 13:25:19;;;;;;;4.43;1.92;;;23.40;59.80;;;;;;20577599;28;20047;-81
2022/07/22 13:35:20;;;;;;;2.20;1.48;;;23.40;59.80;;;;;;20596047;28;20034;-81
2022/07/22 13:45:20;;;;;;;8.52;2.08;;;23.40;59.70;;;;;;20589005;28;20035;-84
2022/07/22 13:55:21;;;;;;;7.07;2.10;;;23.40;60.10;;;;;;20634112;28;20042;-84
2022/07/22 14:05:22;;;;;;;3.05;1.85;;;23.40;60.00;;;;;;20556440;28;20296;-81
2022/07/22 14:15:22;;;;;;;4.72;2.33;;;23.40;59.70;;;;;;20584607;28;20037;-77
2022/07/22 14:25:23;;;;;;;12.38;5.43;;;23.30;59.30;;;;;;20619310;28;20465;-83
2022/07/22 14:35:24;;;;;;;15.45;3.78;;;23.30;59.10;;;;;;20638703;28;20045;-78
2022/07/22 14:45:24;;;;;;;6.45;3.00;;;23.30;58.80;;;;;;20677288;28;20057;-82
2022/07/22 14:55:25;;;;;;;4.70;2.30;;;23.30;58.80;;;;;;20599382;28;20046;-80
2022/07/22 15:05:26;;;;;;;3.47;2.58;;;23.30;58.80;;;;;;20595670;28;20034;-80
2022/07/22 15:15:27;;;;;;;5.95;2.13;;;23.30;58.70;;;;;;20613947;28;20087;-83
2022/07/22 15:25:28;;;;;;;3.93;1.73;;;23.30;58.80;;;;;;20643451;28;20121;-83
2022/07/22 15:35:28;;;;;;;4.53;2.30;;;23.30;58.80;;;;;;20616829;28;20290;-82
2022/07/22 15:45:29;;;;;;;3.08;1.95;;;23.30;58.80;;;;;;20592745;28;20038;-81
2022/07/22 15:55:29;;;;;;;3.60;1.90;;;23.30;58.70;;;;;;20583992;28;20384;-78
2022/07/22 16:05:30;;;;;;;4.85;2.17;;;23.30;58.80;;;;;;20564986;28;20061;-83
2022/07/22 16:15:31;;;;;;;3.40;2.22;;;23.40;58.90;;;;;;20594758;28;20524;-76
2022/07/22 16:25:32;;;;;;;3.78;2.17;;;23.30;58.90;;;;;;20594325;28;20165;-75
2022/07/22 16:35:32;;;;;;;2.93;1.93;;;23.30;58.90;;;;;;20590034;28;20070;-75
2022/07/22 16:45:33;;;;;;;3.55;2.55;;;23.30;59.00;;;;;;20606035;28;20041;-73
2022/07/22 16:55:33;;;;;;;3.10;2.40;;;23.30;59.00;;;;;;20620569;28;20100;-75
2022/07/22 17:05:34;;;;;;;5.32;2.30;;;23.30;59.00;;;;;;20547223;28;20389;-75
2022/07/22 17:15:35;;;;;;;5.65;3.40;;;23.30;58.80;;;;;;20577361;28;20089;-75
2022/07/22 17:25:36;;;;;;;2.88;2.40;;;23.30;58.80;;;;;;20551855;28;20454;-72
2022/07/22 17:35:40;;;;;;;3.90;2.53;;;23.20;58.70;;;;;;20573800;28;20113;-76
2022/07/22 17:45:41;;;;;;;2.90;2.10;;;23.20;58.70;;;;;;20515718;28;20042;-74
2022/07/22 17:55:42;;;;;;;3.87;2.60;;;23.20;58.70;;;;;;20555038;28;20096;-75
2022/07/22 18:05:42;;;;;;;3.63;2.28;;;23.20;58.60;;;;;;20554970;28;20339;-75
2022/07/22 18:15:44;;;;;;;2.22;1.80;;;23.20;59.10;;;;;;20567806;28;20089;-78
2022/07/22 18:25:45;;;;;;;3.13;1.83;;;23.10;58.30;;;;;;20573063;28;20035;-77
2022/07/22 18:35:45;;;;;;;3.35;2.17;;;23.10;58.20;;;;;;20562204;28;20563;-77
2022/07/22 18:45:46;;;;;;;2.38;1.63;;;23.10;58.20;;;;;;20571864;28;20038;-77
2022/07/22 18:55:46;;;;;;;2.63;1.77;;;23.10;58.20;;;;;;20567045;28;20051;-77
2022/07/22 19:05:47;;;;;;;2.67;1.92;;;23.10;58.20;;;;;;20553732;28;20125;-77
2022/07/22 19:15:48;;;;;;;2.80;1.70;;;23.10;58.80;;;;;;20564540;28;20035;-77
2022/07/22 19:25:48;;;;;;;2.80;2.07;;;23.00;58.10;;;;;;20584470;28;20038;-75
2022/07/22 19:35:49;;;;;;;3.33;2.00;;;23.00;58.10;;;;;;20563362;28;20373;-77
2022/07/22 19:45:49;;;;;;;2.97;1.75;;;23.00;58.20;;;;;;20566287;28;20034;-77
2022/07/22 19:55:50;;;;;;;3.05;2.00;;;22.90;58.10;;;;;;20566374;28;20038;-77
2022/07/22 20:05:51;;;;;;;4.15;2.47;;;22.90;58.10;;;;;;20575373;28;20146;-77
2022/07/22 20:15:51;;;;;;;3.50;1.80;;;22.90;58.20;;;;;;20580245;28;20160;-73
2022/07/22 20:25:52;;;;;;;4.10;2.10;;;22.90;58.30;;;;;;20566721;28;20038;-73
2022/07/22 20:35:53;;;;;;;2.55;1.55;;;22.80;58.60;;;;;;20603187;28;20042;-72
2022/07/22 20:45:53;;;;;;;3.28;2.13;;;22.80;58.70;;;;;;20604308;28;20498;-73
2022/07/22 20:55:54;;;;;;;5.03;1.98;;;22.70;58.80;;;;;;20601762;28;20043;-73
2022/07/22 21:05:54;;;;;;;3.28;1.80;;;22.70;58.90;;;;;;20594074;28;20037;-75
2022/07/22 21:15:55;;;;;;;4.57;1.70;;;22.60;58.90;;;;;;20602736;28;20122;-73
2022/07/22 21:25:55;;;;;;;3.38;2.40;;;22.60;58.90;;;;;;20600920;28;20053;-75
2022/07/22 21:35:56;;;;;;;5.03;2.05;;;22.60;58.80;;;;;;20570340;28;20076;-74
2022/07/22 21:45:57;;;;;;;8.60;2.40;;;22.50;58.70;;;;;;20569594;28;20062;-74
2022/07/22 22:06:16;;;;;;;4.32;2.17;;;22.40;58.40;;;;;;20573475;28;20386;-73
2022/07/22 22:16:17;;;;;;;4.85;2.35;;;22.30;58.30;;;;;;20613347;28;20454;-71
2022/07/22 22:26:17;;;;;;;4.97;2.67;;;22.30;58.30;;;;;;20597366;28;20065;-71
2022/07/22 22:36:18;;;;;;;4.28;1.95;;;22.30;58.30;;;;;;20577046;28;20042;-70
2022/07/22 22:46:19;;;;;;;4.53;2.08;;;22.20;58.20;;;;;;20581909;28;20046;-72
2022/07/22 22:56:20;;;;;;;2.80;1.95;;;22.20;58.20;;;;;;20610269;28;20051;-71
2022/07/22 23:06:20;;;;;;;4.10;1.73;;;22.10;58.10;;;;;;20603890;28;20446;-73
2022/07/22 23:16:21;;;;;;;2.35;1.70;;;22.10;58.10;;;;;;20626732;28;20453;-73
2022/07/22 23:26:23;;;;;;;3.30;2.10;;;22.00;57.90;;;;;;20599048;28;20038;-73
2022/07/22 23:36:24;;;;;;;3.65;2.38;;;22.00;57.90;;;;;;20588112;28;20070;-72
2022/07/22 23:46:24;;;;;;;3.38;1.90;;;21.90;58.00;;;;;;20623688;28;20122;-73
2022/07/22 23:56:25;;;;;;;4.38;2.22;;;21.90;58.00;;;;;;20622881;28;20031;-75
